EW2972 Weather Reports


Display with metric or nautical units.
time (UTC)temp
F
wind
direction
speed
MPH
gust
MPH
rain 1hr
in
rain 24hr
in
rain mn
in
humidity
%
barometer
mb
20200224182143 73 290 6.0 14.0 0.00 0.15 0.15 62 1010.1
20200224181659 73 290 6.0 14.0 0.00 0.15 0.15 61 1010.3
20200224181144 73 336 6.0 15.0 0.00 0.15 0.15 60 1010.3
20200224180646 73 213 5.0 15.0 0.00 0.15 0.15 55 1010.4
20200224180146 74 342 6.0 16.0 0.00 0.15 0.15 56 1010.5
20200224175645 74 290 5.0 16.0 0.00 0.15 0.15 60 1010.5
20200224175142 74 334 4.0 14.0 0.00 0.15 0.15 62 1010.6
20200224174639 74 227 4.0 12.0 0.00 0.15 0.15 61 1010.8
20200224174137 74 269 4.0 12.0 0.00 0.15 0.15 64 1010.9
20200224173643 74 277 5.0 12.0 0.00 0.15 0.15 63 1010.9
20200224173148 75 211 6.0 12.0 0.00 0.15 0.15 65 1011.0
20200224172638 74 244 6.0 12.0 0.00 0.15 0.15 70 1010.9
20200224172142 73 219 5.0 12.0 0.00 0.15 0.15 73 1011.0
20200224171634 73 246 4.0 12.0 0.00 0.15 0.15 76 1011.1
20200224171137 71 283 4.0 12.0 0.00 0.15 0.15 79 1011.1
20200224170644 71 284 5.0 10.0 0.00 0.15 0.15 79 1011.1
20200224170133 70 271 5.0 11.0 0.00 0.15 0.15 80 1011.1
20200224165636 70 291 6.0 11.0 0.00 0.15 0.15 81 1011.2
20200224165134 70 228 5.0 11.0 0.00 0.15 0.15 81 1011.3
20200224164643 70 276 5.0 11.0 0.00 0.15 0.15 81 1011.2
20200224164140 70 285 5.0 10.0 0.00 0.15 0.15 82 1011.4
20200224163646 70 304 6.0 13.0 0.00 0.15 0.15 83 1011.4
20200224163139 69 240 5.0 13.0 0.00 0.15 0.15 83 1011.3
20200224162638 70 206 4.0 13.0 0.00 0.15 0.15 83 1011.2
20200224162147 69 262 5.0 13.0 0.00 0.15 0.15 84 1011.4
20200224161638 69 228 4.0 12.0 0.00 0.15 0.15 84 1011.4
20200224161140 68 260 3.0 9.0 0.00 0.15 0.15 85 1011.4
20200224160639 68 290 3.0 9.0 0.00 0.15 0.15 85 1011.5
20200224160139 67 265 3.0 8.0 0.00 0.15 0.15 87 1011.4
20200224155634 67 241 3.0 8.0 0.00 0.15 0.15 87 1011.3
20200224155148 66 219 3.0 7.0 0.00 0.15 0.15 89 1011.6
20200224154633 66 280 2.0 7.0 0.00 0.15 0.15 90 1011.8
20200224154137 65 234 2.0 7.0 0.00 0.15 0.15 90 1011.8
20200224153636 65 296 2.0 7.0 0.00 0.15 0.15 91 1011.8
20200224153135 65 259 2.0 4.0 0.00 0.15 0.15 92 1011.7
20200224152639 65 249 1.0 5.0 0.00 0.15 0.15 93 1011.8
20200224152140 65 203 2.0 5.0 0.00 0.15 0.15 93 1011.7
20200224151638 65 242 3.0 5.0 0.00 0.15 0.15 94 1011.7
20200224151137 65 224 3.0 9.0 0.00 0.15 0.15 94 1011.5
20200224150642 65 229 3.0 9.0 0.00 0.15 0.15 94 1011.5
20200224150138 65 193 2.0 7.0 0.00 0.15 0.15 95 1011.6
20200224145636 65 221 2.0 6.0 0.00 0.15 0.15 95 1011.7
20200224145135 65 223 3.0 9.0 0.00 0.15 0.15 95 1011.5
20200224144631 64 214 2.0 9.0 0.00 0.15 0.15 95 1011.4
20200224144132 64 224 2.0 7.0 0.00 0.15 0.15 95 1011.5
20200224143628 64 227 2.0 7.0 0.00 0.15 0.15 95 1011.3
20200224143142 64 217 3.0 6.0 0.00 0.15 0.15 95 1011.4
20200224142628 64 208 4.0 8.0 0.00 0.15 0.15 95 1011.1
20200224142140 64 195 5.0 9.0 0.00 0.15 0.15 95 1011.0
20200224141635 64 165 5.0 9.0 0.00 0.15 0.15 95 1011.2
20200224141135 63 178 4.0 8.0 0.00 0.15 0.15 95 1011.0
20200224140632 63 191 3.0 8.0 0.00 0.15 0.15 95 1011.0
20200224140127 63 156 1.0 3.0 0.01 0.15 0.15 94 1011.1
20200224135640 63 156 1.0 3.0 0.01 0.15 0.15 94 1011.0
20200224135130 63 156 1.0 3.0 0.02 0.15 0.15 95 1011.1
20200224134623 63 156 1.0 3.0 0.04 0.15 0.15 94 1011.1
20200224134124 63 156 1.0 2.0 0.05 0.15 0.15 94 1011.0
20200224133629 63 156 1.0 5.0 0.06 0.15 0.15 94 1011.0
20200224133133 63 156 2.0 5.0 0.06 0.15 0.15 94 1011.1
20200224132636 63 156 3.0 5.0 0.07 0.15 0.15 94 1011.0
20200224132120 63 150 3.0 6.0 0.07 0.15 0.15 94 1011.0
20200224131620 62 178 4.0 7.0 0.08 0.15 0.15 94 1011.1
20200224131118 62 163 4.0 7.0 0.09 0.15 0.15 94 1011.1
20200224130623 62 128 3.0 5.0 0.10 0.15 0.15 94 1011.1
20200224130121 62 174 2.0 5.0 0.09 0.14 0.14 94 1011.4
20200224125638 62 190 2.0 5.0 0.10 0.14 0.14 94 1011.4
20200224125136 62 307 2.0 5.0 0.09 0.13 0.13 94 1011.4
20200224124626 63 311 3.0 6.0 0.07 0.11 0.10 94 1011.5
20200224124125 63 329 2.0 6.0 0.07 0.10 0.10 94 1011.5
20200224123621 63 321 2.0 6.0 0.06 0.09 0.09 94 1011.5
20200224123134 63 342 2.0 6.0 0.06 0.09 0.09 93 1011.5
20200224122625 63 306 3.0 7.0 0.05 0.08 0.08 93 1011.4
20200224122125 63 327 4.0 9.0 0.04 0.07 0.07 93 1011.3
20200224121621 64 312 4.0 9.0 0.04 0.07 0.07 94 1011.5
20200224121120 64 307 4.0 8.0 0.03 0.06 0.06 94 1011.7
20200224120636 64 355 3.0 8.0 0.03 0.05 0.05 94 1011.7
20200224120123 64 255 2.0 4.0 0.05 0.05 0.04 94 1011.7
20200224115618 64 229 2.0 6.0 0.04 0.04 0.04 94 1011.4
20200224115123 64 173 2.0 6.0 0.04 0.04 0.04 94 1011.2
20200224114630 64 183 3.0 7.0 0.04 0.04 0.03 94 1011.2
20200224114129 64 165 3.0 7.0 0.03 0.03 0.03 94 1011.1
20200224113618 64 195 4.0 7.0 0.03 0.03 0.03 93 1011.1
20200224113126 64 171 4.0 10.0 0.03 0.03 0.03 93 1011.1
20200224112615 64 182 4.0 10.0 0.03 0.03 0.03 93 1011.1
20200224112116 64 178 4.0 10.0 0.03 0.03 0.03 93 1010.8
20200224111613 64 164 5.0 9.0 0.03 0.03 0.03 92 1010.9
20200224111117 64 176 5.0 9.0 0.03 0.03 0.02 92 1011.0
20200224110621 64 159 4.0 9.0 0.02 0.02 0.01 92 1011.1
20200224110115 64 190 5.0 10.0 0.00 0.00 0.00 92 1011.2
20200224105622 65 181 6.0 12.0 0.00 0.00 0.00 92 1011.2
20200224105121 65 156 6.0 12.0 0.00 0.00 0.00 91 1010.8
20200224104616 65 166 5.0 11.0 0.00 0.00 0.00 91 1010.9
20200224104119 65 188 6.0 12.0 0.00 0.00 0.00 91 1011.1
20200224103612 65 186 6.0 12.0 0.00 0.00 0.00 91 1011.1
20200224103117 65 160 8.0 12.0 0.00 0.00 0.00 91 1011.1
20200224102624 65 178 8.0 12.0 0.00 0.00 0.00 91 1011.0
20200224102111 64 186 7.0 13.0 0.00 0.00 0.00 91 1010.9
20200224101615 64 186 5.0 13.0 0.00 0.00 0.00 92 1011.0
20200224101051 64 164 5.0 8.0 0.00 0.00 0.00 92 1011.1
20200224100549 64 175 6.0 12.0 0.00 0.00 0.00 92 1011.3
20200224100055 64 161 6.0 12.0 0.00 0.00 0.00 92 1011.2
20200224095551 64 173 6.0 9.0 0.00 0.00 0.00 92 1011.4
20200224095100 64 178 5.0 9.0 0.00 0.00 0.00 92 1011.5
20200224094548 64 167 5.0 8.0 0.00 0.00 0.00 92 1011.5
20200224094050 64 144 5.0 8.0 0.00 0.00 0.00 92 1011.6
20200224093546 64 169 4.0 8.0 0.00 0.00 0.00 92 1011.6
20200224093050 64 161 3.0 6.0 0.00 0.00 0.00 92 1011.6
20200224092550 64 179 4.0 5.0 0.00 0.00 0.00 92 1011.7
20200224092100 64 169 4.0 5.0 0.00 0.00 0.00 92 1011.8
20200224091554 64 168 4.0 7.0 0.00 0.00 0.00 92 1012.0
20200224091050 64 165 3.0 7.0 0.00 0.00 0.00 92 1012.0
20200224090550 64 161 3.0 6.0 0.00 0.00 0.00 92 1012.2
20200224090046 64 167 3.0 6.0 0.00 0.00 0.00 92 1012.2
20200224085546 64 165 3.0 6.0 0.00 0.00 0.00 92 1012.1
20200224085046 64 165 4.0 6.0 0.00 0.00 0.00 92 1011.9
20200224084551 64 157 4.0 6.0 0.00 0.00 0.00 91 1012.2
20200224084047 64 151 3.0 6.0 0.00 0.00 0.00 91 1012.3
20200224083546 64 169 3.0 6.0 0.00 0.00 0.00 91 1012.6
20200224083050 64 136 3.0 5.0 0.00 0.00 0.00 91 1012.7
20200224082548 64 166 3.0 6.0 0.00 0.00 0.00 91 1012.9
20200224082057 64 182 3.0 7.0 0.00 0.00 0.00 91 1012.9
20200224081550 64 151 3.0 7.0 0.00 0.00 0.00 91 1012.9
20200224081050 64 171 4.0 7.0 0.00 0.00 0.00 90 1012.9
20200224080544 64 154 4.0 7.0 0.00 0.00 0.00 90 1012.9
20200224080046 65 183 4.0 8.0 0.00 0.00 0.00 90 1012.9
20200224075551 65 171 4.0 8.0 0.00 0.00 0.00 89 1013.0
20200224075049 65 168 4.0 7.0 0.00 0.00 0.00 89 1013.3
20200224074546 65 174 4.0 7.0 0.00 0.00 0.00 89 1013.3
20200224074050 65 170 4.0 7.0 0.00 0.00 0.00 89 1013.4
20200224073553 65 177 5.0 7.0 0.00 0.00 0.00 88 1013.2
20200224073050 65 178 5.0 8.0 0.00 0.00 0.00 88 1013.4
20200224072551 65 188 5.0 11.0 0.00 0.00 0.00 88 1013.4
20200224072052 65 172 6.0 11.0 0.00 0.00 0.00 88 1013.3
20200224071550 65 174 5.0 10.0 0.00 0.00 0.00 88 1013.3
20200224071047 65 168 6.0 10.0 0.00 0.00 0.00 88 1013.2
20200224070549 65 186 6.0 12.0 0.00 0.00 0.00 88 1013.3
20200224070050 65 169 5.0 12.0 0.00 0.00 0.00 88 1013.2
20200224065554 65 180 5.0 12.0 0.00 0.00 0.00 89 1013.2
20200224065045 64 180 5.0 12.0 0.00 0.00 0.00 89 1013.2
20200224064549 64 145 4.0 11.0 0.00 0.00 0.00 89 1013.2
20200224064046 64 155 5.0 11.0 0.00 0.00 0.00 89 1013.2
20200224063548 64 153 4.0 9.0 0.00 0.00 0.00 89 1013.2
20200224063049 64 178 4.0 8.0 0.00 0.00 0.00 89 1013.3
20200224062555 64 146 5.0 9.0 0.00 0.00 0.00 89 1013.3
20200224062047 64 138 6.0 11.0 0.00 0.00 0.00 89 1013.4
20200224061549 64 159 6.0 11.0 0.00 0.00 0.00 89 1013.5
20200224061048 64 166 7.0 14.0 0.00 0.00 0.00 89 1013.6
20200224060554 64 191 8.0 15.0 0.00 0.00 0.00 89 1013.6
20200224060047 64 146 8.0 15.0 0.00 0.00 0.00 89 1013.5
20200224055550 64 138 8.0 16.0 0.00 0.00 0.00 89 1013.7
20200224055100 64 161 8.0 16.0 0.00 0.00 0.00 89 1013.6
20200224054548 64 138 8.0 14.0 0.00 0.00 0.00 89 1013.6
20200224054047 64 132 8.0 14.0 0.00 0.00 0.00 89 1013.8
20200224053546 64 136 8.0 15.0 0.00 0.00 0.00 89 1013.8
20200224053045 64 173 8.0 16.0 0.00 0.00 0.00 90 1013.6
20200224052546 63 168 8.0 16.0 0.00 0.00 0.00 90 1013.9
20200224052048 63 143 7.0 13.0 0.00 0.00 0.00 90 1013.9
20200224051541 63 128 6.0 13.0 0.00 0.00 0.00 90 1014.0
20200224051046 63 138 6.0 12.0 0.00 0.00 0.00 90 1014.2
20200224050547 63 160 6.0 12.0 0.00 0.00 0.00 90 1014.4
20200224050047 63 166 7.0 11.0 0.00 0.00 0.00 90 1014.5
20200224045554 63 154 7.0 12.0 0.00 0.00 0.00 90 1014.4
20200224045046 63 157 6.0 13.0 0.00 0.00 0.00 90 1014.3
20200224044544 63 132 6.0 13.0 0.00 0.00 0.00 90 1014.3
20200224044044 63 176 6.0 12.0 0.00 0.00 0.00 90 1014.5
20200224043546 62 132 6.0 12.0 0.00 0.00 0.00 90 1014.7
20200224043045 62 157 5.0 9.0 0.00 0.00 0.00 90 1014.9
20200224042552 62 127 4.0 9.0 0.00 0.00 0.00 90 1015.1
20200224042042 62 157 4.0 9.0 0.00 0.00 0.00 90 1015.3
20200224041542 62 132 5.0 9.0 0.00 0.00 0.00 90 1015.2
20200224041048 62 149 5.0 9.0 0.00 0.00 0.00 90 1015.3
20200224040541 62 113 5.0 9.0 0.00 0.00 0.00 89 1015.3
20200224040043 62 159 5.0 9.0 0.00 0.00 0.00 89 1015.2
20200224035546 62 158 5.0 8.0 0.00 0.00 0.00 89 1015.4
20200224035039 62 150 4.0 8.0 0.00 0.00 0.00 89 1015.4
20200224034553 62 132 5.0 8.0 0.00 0.00 0.00 89 1015.4
20200224034058 62 119 5.0 10.0 0.00 0.00 0.00 89 1015.3
20200224033550 62 149 5.0 10.0 0.00 0.00 0.00 89 1015.7
20200224033049 62 164 5.0 12.0 0.00 0.00 0.00 89 1015.9
20200224032550 62 89 5.0 12.0 0.00 0.00 0.00 88 1016.0
20200224032053 62 152 5.0 10.0 0.00 0.00 0.00 88 1016.0
20200224031546 62 123 4.0 10.0 0.00 0.00 0.00 88 1016.1
20200224031044 62 170 5.0 13.0 0.00 0.00 0.00 88 1015.9
20200224030548 62 147 5.0 13.0 0.00 0.00 0.00 88 1015.8
20200224030046 62 148 5.0 13.0 0.00 0.00 0.00 88 1015.8
20200224025546 62 138 5.0 13.0 0.00 0.00 0.00 88 1015.8
20200224025045 62 141 4.0 9.0 0.00 0.00 0.00 87 1015.9
20200224024552 62 152 5.0 9.0 0.00 0.00 0.00 87 1016.1
20200224024043 62 140 5.0 9.0 0.00 0.00 0.00 87 1016.1
20200224023545 62 143 5.0 10.0 0.00 0.00 0.00 86 1016.0
20200224023048 63 146 6.0 11.0 0.00 0.00 0.00 86 1015.9
20200224022542 63 136 6.0 11.0 0.00 0.00 0.00 86 1015.9
20200224022051 63 171 5.0 11.0 0.00 0.00 0.00 86 1015.9
20200224021546 63 138 5.0 10.0 0.00 0.00 0.00 85 1015.9
20200224021043 63 120 4.0 10.0 0.00 0.00 0.00 85 1016.1
20200224020543 63 165 4.0 8.0 0.00 0.00 0.00 85 1016.0
20200224020043 63 148 3.0 7.0 0.00 0.00 0.00 85 1016.0
20200224015544 63 127 3.0 5.0 0.00 0.00 0.00 85 1016.0
20200224015049 63 128 3.0 7.0 0.00 0.00 0.00 85 1016.1
20200224014553 63 132 3.0 10.0 0.00 0.00 0.00 84 1016.3
20200224014050 63 159 4.0 10.0 0.00 0.00 0.00 84 1016.5
20200224013537 63 140 6.0 13.0 0.00 0.00 0.00 84 1016.1
20200224013042 63 146 7.0 13.0 0.00 0.00 0.00 84 1016.3
20200224012537 63 151 7.0 13.0 0.00 0.00 0.00 84 1016.2
20200224012042 63 115 6.0 13.0 0.00 0.00 0.00 84 1016.6
20200224011538 63 128 5.0 11.0 0.00 0.00 0.00 84 1016.8
20200224011036 63 128 5.0 10.0 0.00 0.00 0.00 84 1016.6
20200224010539 63 131 6.0 11.0 0.00 0.00 0.00 84 1016.5
20200224010039 63 113 6.0 11.0 0.00 0.00 0.00 84 1016.3
20200224005536 63 163 6.0 11.0 0.00 0.00 0.00 84 1016.5
20200224005037 63 142 6.0 11.0 0.00 0.00 0.00 84 1016.3
20200224004541 63 139 6.0 10.0 0.00 0.00 0.00 83 1016.3
20200224004040 63 137 6.0 10.0 0.00 0.00 0.00 83 1016.2
20200224003537 63 140 6.0 12.0 0.00 0.00 0.00 83 1016.2
20200224003039 64 122 6.0 12.0 0.00 0.00 0.00 83 1016.2
20200224002547 64 151 7.0 12.0 0.00 0.00 0.00 83 1016.1
20200224002037 64 116 8.0 14.0 0.00 0.00 0.00 83 1016.0
20200224001537 64 132 7.0 14.0 0.00 0.00 0.00 82 1015.9
20200224001036 64 195 7.0 15.0 0.00 0.00 0.00 82 1015.8
20200224000534 64 144 6.0 15.0 0.00 0.00 0.00 82 1015.9
20200224000034 64 127 6.0 13.0 0.00 0.00 0.00 82 1015.7
20200223235534 64 151 6.0 13.0 0.00 0.00 0.00 82 1015.8
20200223235041 64 150 5.0 9.0 0.00 0.00 0.00 82 1015.8
20200223234536 64 97 6.0 13.0 0.00 0.00 0.00 81 1015.7
20200223234042 64 115 6.0 13.0 0.00 0.00 0.00 81 1015.5
20200223233537 64 121 5.0 13.0 0.00 0.00 0.00 81 1015.5
20200223233036 65 112 4.0 11.0 0.00 0.00 0.00 81 1015.4
20200223232542 65 128 5.0 13.0 0.00 0.00 0.00 81 1015.5
20200223232038 65 128 5.0 13.0 0.00 0.00 0.00 81 1015.4
20200223231540 65 140 5.0 10.0 0.00 0.00 0.00 81 1015.5
20200223231037 65 132 5.0 10.0 0.00 0.00 0.00 81 1015.8
20200223230538 65 124 5.0 10.0 0.00 0.00 0.00 81 1015.8
20200223230038 65 119 3.0 10.0 0.00 0.00 0.00 81 1015.9
20200223225537 65 139 3.0 11.0 0.00 0.00 0.00 81 1016.2
20200223225041 65 117 4.0 11.0 0.00 0.00 0.00 81 1016.2
20200223224542 65 132 4.0 10.0 0.00 0.00 0.00 81 1016.1
20200223224041 65 149 5.0 11.0 0.00 0.00 0.00 81 1015.8
20200223223535 65 65 6.0 15.0 0.00 0.00 0.00 81 1015.9
20200223223036 65 123 5.0 15.0 0.00 0.00 0.00 80 1016.1
20200223222534 65 38 5.0 12.0 0.00 0.00 0.00 80 1016.2
20200223222030 65 125 5.0 12.0 0.00 0.00 0.00 79 1016.0
20200223221529 65 135 6.0 14.0 0.00 0.00 0.00 79 1016.1
20200223221033 65 128 6.0 14.0 0.00 0.00 0.00 79 1016.2
20200223220530 65 100 4.0 10.0 0.00 0.00 0.00 79 1016.1
20200223220033 65 115 5.0 10.0 0.00 0.00 0.00 79 1016.1
20200223215544 65 96 5.0 14.0 0.00 0.00 0.00 79 1016.3
20200223215028 65 109 5.0 14.0 0.00 0.00 0.00 78 1016.3
20200223214533 65 107 4.0 10.0 0.00 0.00 0.00 77 1016.2
20200223214030 66 142 4.0 11.0 0.00 0.00 0.00 77 1016.2
20200223213528 66 107 4.0 11.0 0.00 0.00 0.00 76 1016.3
20200223213025 67 97 5.0 14.0 0.00 0.00 0.00 74 1016.2
20200223212528 67 109 5.0 14.0 0.00 0.00 0.00 72 1016.3
20200223212027 67 158 5.0 10.0 0.00 0.00 0.00 72 1016.5
20200223211527 67 131 6.0 13.0 0.00 0.00 0.00 72 1016.5
20200223211031 67 132 7.0 13.0 0.00 0.00 0.00 72 1016.5
20200223210528 67 133 7.0 12.0 0.00 0.00 0.00 73 1016.6
20200223210025 67 163 7.0 14.0 0.00 0.00 0.00 73 1016.7
20200223205538 67 119 8.0 14.0 0.00 0.00 0.00 73 1016.7
20200223205028 67 159 7.0 13.0 0.00 0.00 0.00 73 1016.9
20200223204535 67 146 7.0 16.0 0.00 0.00 0.00 73 1017.0
20200223204028 67 146 7.0 16.0 0.00 0.00 0.00 73 1017.1
20200223203522 66 170 9.0 18.0 0.00 0.00 0.00 74 1017.1
20200223203024 67 155 9.0 18.0 0.00 0.00 0.00 73 1017.0
20200223202530 67 150 7.0 15.0 0.00 0.00 0.00 73 1017.2
20200223202027 67 153 7.0 14.0 0.00 0.00 0.00 73 1017.3
20200223201522 67 143 8.0 14.0 0.00 0.00 0.00 73 1017.3
20200223201024 67 100 7.0 11.0 0.00 0.00 0.00 73 1017.4
20200223200521 67 147 7.0 13.0 0.00 0.00 0.00 73 1017.5
20200223200024 67 148 8.0 14.0 0.00 0.00 0.00 73 1017.7
20200223195526 67 169 8.0 17.0 0.00 0.00 0.00 73 1017.7
20200223195020 67 176 9.0 19.0 0.00 0.00 0.00 72 1017.7
20200223194523 67 173 9.0 19.0 0.00 0.00 0.00 72 1017.7
20200223194023 67 146 9.0 17.0 0.00 0.00 0.00 72 1017.8
20200223193520 67 138 9.0 15.0 0.00 0.00 0.00 72 1017.9
20200223193020 67 128 9.0 18.0 0.00 0.00 0.00 72 1017.9
20200223192532 67 168 10.0 18.0 0.00 0.00 0.00 72 1018.0
20200223192022 67 142 9.0 18.0 0.00 0.00 0.00 72 1018.3
20200223191522 67 134 9.0 17.0 0.00 0.00 0.00 72 1018.2
20200223191022 67 158 9.0 17.0 0.00 0.00 0.00 73 1018.4
20200223190520 67 134 8.0 15.0 0.00 0.00 0.00 74 1018.7
20200223190020 67 131 7.0 15.0 0.00 0.00 0.00 74 1019.0
20200223185519 66 192 6.0 12.0 0.00 0.00 0.00 75 1019.2
20200223185018 66 166 7.0 12.0 0.00 0.00 0.00 75 1019.3
20200223184519 66 176 8.0 13.0 0.00 0.00 0.00 75 1019.5
20200223184019 66 166 9.0 14.0 0.00 0.00 0.00 76 1019.6
20200223183521 65 165 9.0 15.0 0.00 0.00 0.00 75 1019.7
20200223183025 65 147 8.0 15.0 0.00 0.00 0.00 76 1019.7